Arrington, Virginia
Current Conditions -  °F | °C
As of 10:55 PM on Tuesday 21 Oct 2014 (Local Time) from KW13 Reporting Station
Overcast Overcast  
Wind Chill: 51°   Ceiling: 3800
Heat Index: 51°   Visibility: 10mi
Dew Point: 45°   Wind: 5mph
Humidity: 80%   Direction: 330°NNW
Pressure: 29.95"   Gusts: NA
Location:  37.68°N, 78.9°W
Report Text: KW13 220255Z AUTO 33004KT 10SM BKN038 OVC049 10/07 A2995 RMK AO1 T01040071
Loading
Personal Weather Stations






























Interactive Weather Map
Tropical Storm Tracking
New forecast layout! Learn more

10-Day Weather Forecast

Advertisements
Track Severe Weather on mobile